createdAt,value
2023-03-29T00:00:14.924Z,7.72
2023-03-29T00:02:43.562Z,7.81
2023-03-29T00:05:13.185Z,7.73
2023-03-29T00:07:41.183Z,7.84
2023-03-29T00:10:10.593Z,7.89
2023-03-29T00:12:39.169Z,7.81
2023-03-29T00:15:08.275Z,7.76
2023-03-29T00:17:36.005Z,7.64
2023-03-29T00:20:05.048Z,7.66
2023-03-29T00:22:34.088Z,7.64
2023-03-29T00:25:01.702Z,7.60
2023-03-29T00:27:29.315Z,7.60
2023-03-29T00:29:57.823Z,7.61
2023-03-29T00:32:25.564Z,7.54
2023-03-29T00:34:53.248Z,7.53
2023-03-29T00:37:20.929Z,7.58
2023-03-29T00:39:49.892Z,7.56
2023-03-29T00:42:18.629Z,7.70
2023-03-29T00:45:01.979Z,7.67
2023-03-29T00:47:33.223Z,7.75
2023-03-29T00:50:07.501Z,7.76
2023-03-29T00:52:37.260Z,7.67
2023-03-29T00:55:11.831Z,7.65
2023-03-29T00:57:41.587Z,7.73
2023-03-29T01:00:11.014Z,7.67
2023-03-29T01:02:40.777Z,7.69
2023-03-29T01:05:14.561Z,7.68
2023-03-29T01:07:49.329Z,7.73
2023-03-29T01:10:22.573Z,7.68
2023-03-29T01:12:54.371Z,7.71
2023-03-29T01:15:26.501Z,7.62
2023-03-29T01:17:55.756Z,7.60
2023-03-29T01:20:30.705Z,7.59
2023-03-29T01:23:17.795Z,7.50
2023-03-29T01:25:57.127Z,7.57
2023-03-29T01:28:31.272Z,7.54
2023-03-29T01:31:07.368Z,7.52
2023-03-29T01:33:39.792Z,7.66
2023-03-29T01:36:13.896Z,7.59
2023-03-29T01:38:45.225Z,7.73
2023-03-29T01:41:13.205Z,7.74
2023-03-29T01:43:50.522Z,7.70
2023-03-29T01:46:27.619Z,7.60
2023-03-29T01:48:59.810Z,7.49
2023-03-29T01:51:33.034Z,7.45
2023-03-29T01:54:06.025Z,7.49
2023-03-29T01:56:38.847Z,7.48
2023-03-29T01:59:13.149Z,7.45
2023-03-29T02:01:49.160Z,7.46
2023-03-29T02:04:20.983Z,7.35
2023-03-29T02:06:50.246Z,7.31
2023-03-29T02:09:18.138Z,7.29
2023-03-29T02:11:47.190Z,7.29
2023-03-29T02:14:16.888Z,7.34
2023-03-29T02:16:46.124Z,7.35
2023-03-29T02:19:15.343Z,7.14
2023-03-29T02:21:51.749Z,7.19
2023-03-29T02:24:22.904Z,7.14
2023-03-29T02:26:50.787Z,7.02
2023-03-29T02:29:19.986Z,7.06
2023-03-29T02:31:52.428Z,7.02
2023-03-29T02:34:26.660Z,6.89
2023-03-29T02:36:58.796Z,7.06
2023-03-29T02:39:28.670Z,6.99
2023-03-29T02:41:57.128Z,7.12
2023-03-29T02:44:29.332Z,6.93
2023-03-29T02:47:01.163Z,6.90
2023-03-29T02:49:29.162Z,7.02
2023-03-29T02:52:00.777Z,6.94
2023-03-29T02:54:31.537Z,6.93
2023-03-29T02:57:00.644Z,6.94
2023-03-29T02:59:31.079Z,6.92
2023-03-29T03:01:58.903Z,6.98
2023-03-29T03:04:26.538Z,6.93
2023-03-29T03:06:54.464Z,6.82
2023-03-29T03:09:22.184Z,6.91
2023-03-29T03:11:49.801Z,6.80
2023-03-29T03:14:18.676Z,6.73
2023-03-29T03:16:47.775Z,7.01
2023-03-29T03:19:15.345Z,6.98
2023-03-29T03:21:43.241Z,7.02
2023-03-29T03:24:13.231Z,7.02
2023-03-29T03:26:40.792Z,6.99
2023-03-29T03:29:08.452Z,7.16
2023-03-29T03:31:36.150Z,7.24
2023-03-29T03:34:05.144Z,7.19
2023-03-29T03:36:34.604Z,7.17
2023-03-29T03:39:02.586Z,7.11
2023-03-29T03:41:30.764Z,7.18
2023-03-29T03:43:58.309Z,7.30
2023-03-29T03:46:27.734Z,7.08
2023-03-29T03:48:57.333Z,7.09
2023-03-29T03:51:27.045Z,7.04
2023-03-29T03:53:54.710Z,7.01
2023-03-29T03:56:22.370Z,6.89
2023-03-29T03:58:50.006Z,6.90
2023-03-29T04:01:18.089Z,6.99
2023-03-29T04:03:46.386Z,6.87
2023-03-29T04:06:13.985Z,6.85
2023-03-29T04:08:43.137Z,6.70
2023-03-29T04:11:10.910Z,6.77
2023-03-29T04:13:38.569Z,6.66
2023-03-29T04:16:07.280Z,6.55
2023-03-29T04:18:35.012Z,6.49
2023-03-29T04:21:08.887Z,6.43
2023-03-29T04:23:37.197Z,6.37
2023-03-29T04:26:07.896Z,6.46
2023-03-29T04:28:35.780Z,6.48
2023-03-29T04:31:03.900Z,6.43
2023-03-29T04:33:31.960Z,6.37
2023-03-29T04:36:01.410Z,6.58
2023-03-29T04:38:29.165Z,6.53
2023-03-29T04:40:56.848Z,6.56
2023-03-29T04:43:25.996Z,6.52
2023-03-29T04:45:54.235Z,6.60
2023-03-29T04:48:22.599Z,6.51
2023-03-29T04:50:52.328Z,6.50
2023-03-29T04:53:22.696Z,6.38
2023-03-29T04:55:50.645Z,6.45
2023-03-29T04:58:20.090Z,6.50
2023-03-29T05:00:51.696Z,6.38
2023-03-29T05:03:19.710Z,6.35
2023-03-29T05:05:47.304Z,6.46
2023-03-29T05:08:15.008Z,6.51
2023-03-29T05:10:43.312Z,6.53
2023-03-29T05:13:11.121Z,6.51
2023-03-29T05:15:41.351Z,6.31
2023-03-29T05:18:10.561Z,6.43
2023-03-29T05:20:38.766Z,6.57
2023-03-29T05:23:06.362Z,6.81
2023-03-29T05:25:34.521Z,6.94
2023-03-29T05:28:02.374Z,6.99
2023-03-29T05:30:30.346Z,7.12
2023-03-29T05:32:58.040Z,7.14
2023-03-29T05:35:29.004Z,7.24
2023-03-29T05:37:56.754Z,7.06
2023-03-29T05:40:26.149Z,7.03
2023-03-29T05:42:54.363Z,6.93
2023-03-29T05:45:22.920Z,7.01
2023-03-29T05:47:50.591Z,7.17
2023-03-29T05:50:18.915Z,7.31
2023-03-29T05:52:47.805Z,7.42
2023-03-29T05:55:16.535Z,7.56
2023-03-29T05:57:44.149Z,7.74
2023-03-29T06:00:20.013Z,7.85
2023-03-29T06:02:48.155Z,7.90
2023-03-29T06:05:16.061Z,8.10
2023-03-29T06:07:43.919Z,8.19
2023-03-29T06:10:13.976Z,8.35
2023-03-29T06:12:41.801Z,8.43
2023-03-29T06:15:13.227Z,8.45
2023-03-29T06:17:41.244Z,8.57
2023-03-29T06:20:11.742Z,8.75
2023-03-29T06:22:39.822Z,8.75
2023-03-29T06:25:09.274Z,8.88
2023-03-29T06:27:38.300Z,8.87
2023-03-29T06:30:07.088Z,8.88
2023-03-29T06:32:37.043Z,8.85
2023-03-29T06:35:05.472Z,8.94
2023-03-29T06:37:34.109Z,9.25
2023-03-29T06:40:06.879Z,9.45
2023-03-29T06:42:34.844Z,9.91
2023-03-29T06:45:04.550Z,10.03
2023-03-29T06:47:32.857Z,10.17
2023-03-29T06:50:00.583Z,10.00
2023-03-29T06:52:28.233Z,10.13
2023-03-29T06:54:55.885Z,10.07
2023-03-29T06:57:23.727Z,10.10
2023-03-29T06:59:51.304Z,9.83
2023-03-29T07:02:20.518Z,9.84
2023-03-29T07:04:48.782Z,9.66
2023-03-29T07:07:20.818Z,9.66
2023-03-29T07:09:53.875Z,9.71
2023-03-29T07:12:22.907Z,9.95
2023-03-29T07:14:50.545Z,10.30
2023-03-29T07:17:18.348Z,9.97
2023-03-29T07:19:48.813Z,10.20
2023-03-29T07:22:16.342Z,10.44
2023-03-29T07:24:44.939Z,10.36
2023-03-29T07:27:12.817Z,10.18
2023-03-29T07:29:40.585Z,10.13
2023-03-29T07:32:08.356Z,10.17
2023-03-29T07:34:36.888Z,10.18
2023-03-29T07:37:07.053Z,10.01
2023-03-29T07:39:35.328Z,10.17
2023-03-29T07:42:03.456Z,10.36
2023-03-29T07:44:33.381Z,10.47
2023-03-29T07:47:04.405Z,10.60
2023-03-29T07:49:32.151Z,10.35
2023-03-29T07:51:59.700Z,10.29
2023-03-29T07:54:28.695Z,10.69
2023-03-29T07:56:58.536Z,11.06
2023-03-29T07:59:28.830Z,10.75
2023-03-29T08:01:56.726Z,10.80
2023-03-29T08:04:24.586Z,10.56
2023-03-29T08:06:54.170Z,10.78
2023-03-29T08:09:22.280Z,10.93
2023-03-29T08:11:51.847Z,10.98
2023-03-29T08:14:19.488Z,11.06
2023-03-29T08:16:47.168Z,11.14
2023-03-29T08:19:16.970Z,11.25
2023-03-29T08:21:45.107Z,11.11
2023-03-29T08:24:12.778Z,11.14
2023-03-29T08:26:40.870Z,11.29
2023-03-29T08:29:09.794Z,11.51
2023-03-29T08:31:37.914Z,11.82
2023-03-29T08:34:05.847Z,11.56
2023-03-29T08:36:33.476Z,11.58
2023-03-29T08:39:03.097Z,11.91
2023-03-29T08:41:39.470Z,11.87
2023-03-29T08:44:21.496Z,12.31
2023-03-29T08:47:01.258Z,12.30
2023-03-29T08:49:30.673Z,12.84
2023-03-29T08:52:01.757Z,13.00
2023-03-29T08:54:34.859Z,12.93
2023-03-29T08:57:08.459Z,12.88
2023-03-29T08:59:38.477Z,13.32
2023-03-29T09:02:17.771Z,13.37
2023-03-29T09:04:48.247Z,13.71
2023-03-29T09:07:16.205Z,14.11
2023-03-29T09:09:44.058Z,14.59
2023-03-29T09:12:26.926Z,14.46
2023-03-29T09:15:08.380Z,14.91
2023-03-29T09:17:44.405Z,15.15
2023-03-29T09:20:26.072Z,14.43
2023-03-29T09:23:09.194Z,14.10
2023-03-29T09:25:53.583Z,13.51
2023-03-29T09:28:32.929Z,13.57
2023-03-29T09:31:07.344Z,13.68
2023-03-29T09:33:42.824Z,14.24
2023-03-29T09:36:16.223Z,14.45
2023-03-29T09:38:47.784Z,14.76
2023-03-29T09:41:23.161Z,14.81
2023-03-29T09:43:53.024Z,14.73
2023-03-29T09:46:28.759Z,14.68
2023-03-29T09:48:57.252Z,14.24
2023-03-29T09:51:28.842Z,14.69
2023-03-29T09:53:57.105Z,14.92
2023-03-29T09:56:24.843Z,14.72
2023-03-29T09:58:52.713Z,14.96
2023-03-29T10:01:21.937Z,14.91
2023-03-29T10:03:52.345Z,15.52
2023-03-29T10:06:23.459Z,15.56
2023-03-29T10:08:58.182Z,15.31
2023-03-29T10:11:33.002Z,15.83
2023-03-29T10:14:03.912Z,16.01
2023-03-29T10:16:38.551Z,15.57
2023-03-29T10:19:22.365Z,15.51
2023-03-29T10:21:51.779Z,15.90
2023-03-29T10:24:21.208Z,15.91
2023-03-29T10:26:55.279Z,16.07
2023-03-29T10:29:24.042Z,16.28
2023-03-29T10:31:53.539Z,15.88
2023-03-29T10:34:25.832Z,15.55
2023-03-29T10:36:58.468Z,15.26
2023-03-29T10:39:29.119Z,14.83
2023-03-29T10:41:58.993Z,15.15
2023-03-29T10:44:32.952Z,15.41
2023-03-29T10:47:11.378Z,15.35
2023-03-29T10:49:47.632Z,15.56
2023-03-29T10:52:17.159Z,15.58
2023-03-29T10:54:45.507Z,15.55
2023-03-29T10:57:22.898Z,15.68
2023-03-29T10:59:58.844Z,15.23
2023-03-29T11:02:50.364Z,15.30
2023-03-29T11:05:31.149Z,15.20
2023-03-29T11:08:26.952Z,14.78
2023-03-29T11:11:04.052Z,15.16
2023-03-29T11:13:40.813Z,15.20
2023-03-29T11:16:19.828Z,15.50
2023-03-29T11:19:04.374Z,15.32
2023-03-29T11:21:43.028Z,15.91
2023-03-29T11:24:27.289Z,15.89
2023-03-29T11:27:09.536Z,16.12
2023-03-29T11:29:45.115Z,15.97
2023-03-29T11:32:17.851Z,15.74
2023-03-29T11:34:57.304Z,16.32
2023-03-29T11:37:32.830Z,16.37
2023-03-29T11:40:16.373Z,16.55
2023-03-29T11:42:48.403Z,16.68
2023-03-29T11:45:26.547Z,16.90
2023-03-29T11:47:57.629Z,17.53
2023-03-29T11:50:31.896Z,17.62
2023-03-29T11:53:08.159Z,17.27
2023-03-29T11:55:38.459Z,17.09
2023-03-29T11:58:14.955Z,17.02
2023-03-29T12:00:46.909Z,16.98
2023-03-29T12:03:22.900Z,16.72
2023-03-29T12:05:57.714Z,16.93
2023-03-29T12:08:30.649Z,16.64
2023-03-29T12:11:05.372Z,16.99
2023-03-29T12:13:37.274Z,16.93
2023-03-29T12:16:13.088Z,17.13
2023-03-29T12:18:45.434Z,17.21
2023-03-29T12:21:55.474Z,16.97
2023-03-29T12:24:23.973Z,16.94
2023-03-29T12:27:10.197Z,17.04
2023-03-29T12:30:01.142Z,17.26
2023-03-29T12:32:45.921Z,17.41
2023-03-29T12:35:34.731Z,17.68
2023-03-29T12:38:12.689Z,17.76
2023-03-29T12:40:43.253Z,17.37
2023-03-29T12:43:20.371Z,17.64
2023-03-29T12:45:49.340Z,17.20
2023-03-29T12:48:21.971Z,17.58
2023-03-29T12:50:53.542Z,17.13
2023-03-29T12:53:26.098Z,16.98
2023-03-29T12:56:10.401Z,16.71
2023-03-29T12:58:53.847Z,16.82
2023-03-29T13:01:32.042Z,16.83
2023-03-29T13:04:16.846Z,16.61
2023-03-29T13:07:03.895Z,16.97
2023-03-29T13:09:37.454Z,17.36
2023-03-29T13:12:08.901Z,17.21
2023-03-29T13:14:38.933Z,17.70
2023-03-29T13:17:18.308Z,17.79
2023-03-29T13:19:52.102Z,17.79
2023-03-29T13:22:42.108Z,18.13
2023-03-29T13:25:34.004Z,17.88
2023-03-29T13:28:11.441Z,18.03
2023-03-29T13:30:52.259Z,18.02
2023-03-29T13:33:39.583Z,18.28
2023-03-29T13:36:16.076Z,17.59
2023-03-29T13:38:48.847Z,17.62
2023-03-29T13:41:33.165Z,17.58
2023-03-29T13:44:01.661Z,17.46
2023-03-29T13:46:41.309Z,17.23
2023-03-29T13:49:20.514Z,17.37
2023-03-29T13:52:07.030Z,17.18
2023-03-29T13:54:38.692Z,17.11
2023-03-29T13:57:13.742Z,17.47
2023-03-29T13:59:50.319Z,17.59
2023-03-29T14:02:30.497Z,17.40
2023-03-29T14:04:59.871Z,17.52
2023-03-29T14:07:31.110Z,17.82
2023-03-29T14:10:01.169Z,17.92
2023-03-29T14:12:38.882Z,17.82
2023-03-29T14:15:22.498Z,17.83
2023-03-29T14:17:53.688Z,17.97
2023-03-29T14:20:21.295Z,17.76
2023-03-29T14:22:48.995Z,17.68
2023-03-29T14:25:21.241Z,17.27
2023-03-29T14:27:50.164Z,17.34
2023-03-29T14:30:23.698Z,17.51
2023-03-29T14:32:52.356Z,17.72
2023-03-29T14:35:21.385Z,17.66
2023-03-29T14:37:49.651Z,17.60
2023-03-29T14:40:19.908Z,17.93
2023-03-29T14:42:50.889Z,17.57
2023-03-29T14:45:23.178Z,17.46
2023-03-29T14:47:52.598Z,17.44
2023-03-29T14:50:26.092Z,17.65
2023-03-29T14:52:54.290Z,17.83
2023-03-29T14:55:24.046Z,17.92
2023-03-29T14:57:55.417Z,17.61
2023-03-29T15:00:27.782Z,17.42
2023-03-29T15:02:57.242Z,17.47
2023-03-29T15:05:32.203Z,17.32
2023-03-29T15:08:01.101Z,17.44
2023-03-29T15:10:28.993Z,17.59
2023-03-29T15:12:58.105Z,17.54
2023-03-29T15:15:27.396Z,17.67
2023-03-29T15:17:57.078Z,17.60
2023-03-29T15:20:28.180Z,17.35
2023-03-29T15:22:59.952Z,17.36
2023-03-29T15:25:28.559Z,17.41
2023-03-29T15:28:00.953Z,17.40
2023-03-29T15:30:37.199Z,17.35
2023-03-29T15:33:21.888Z,17.13
2023-03-29T15:35:52.409Z,17.31
2023-03-29T15:38:27.437Z,17.43
2023-03-29T15:40:58.162Z,17.21
2023-03-29T15:43:27.877Z,17.05
2023-03-29T15:45:55.486Z,17.25
2023-03-29T15:48:26.818Z,17.06
2023-03-29T15:50:55.037Z,17.17
2023-03-29T15:53:23.634Z,16.97
2023-03-29T15:55:54.789Z,17.09
2023-03-29T15:58:28.547Z,17.14
2023-03-29T16:01:00.142Z,17.22
2023-03-29T16:03:28.236Z,17.29
2023-03-29T16:05:56.913Z,17.10
2023-03-29T16:08:25.279Z,17.08
2023-03-29T16:10:53.121Z,17.17
2023-03-29T16:13:23.658Z,17.08
2023-03-29T16:15:53.040Z,17.16
2023-03-29T16:18:22.267Z,17.17
2023-03-29T16:20:49.995Z,17.14
2023-03-29T16:23:17.894Z,17.13
2023-03-29T16:25:45.924Z,17.22
2023-03-29T16:28:14.047Z,17.22
2023-03-29T16:30:43.001Z,17.16
2023-03-29T16:33:19.941Z,17.01
2023-03-29T16:35:47.866Z,16.85
2023-03-29T16:38:15.638Z,16.87
2023-03-29T16:40:43.843Z,16.82
2023-03-29T16:43:16.030Z,16.73
2023-03-29T16:45:46.448Z,16.88
2023-03-29T16:48:18.357Z,16.65
2023-03-29T16:50:48.713Z,16.55
2023-03-29T16:53:18.787Z,16.47
2023-03-29T16:55:47.309Z,16.43
2023-03-29T16:58:15.244Z,16.39
2023-03-29T17:00:45.017Z,16.43
2023-03-29T17:03:15.573Z,16.38
2023-03-29T17:05:47.884Z,16.17
2023-03-29T17:08:15.940Z,16.22
2023-03-29T17:10:53.562Z,16.19
2023-03-29T17:13:26.340Z,16.06
2023-03-29T17:15:55.613Z,16.02
2023-03-29T17:18:26.610Z,15.98
2023-03-29T17:20:58.319Z,15.87
2023-03-29T17:23:27.043Z,15.99
2023-03-29T17:25:55.623Z,15.91
2023-03-29T17:28:23.394Z,15.85
2023-03-29T17:30:51.310Z,15.80
2023-03-29T17:33:22.478Z,15.70
2023-03-29T17:35:51.870Z,15.75
2023-03-29T17:38:21.112Z,15.60
2023-03-29T17:40:55.732Z,15.56
2023-03-29T17:43:23.966Z,15.56
2023-03-29T17:45:53.934Z,15.53
2023-03-29T17:48:24.459Z,15.43
2023-03-29T17:50:58.213Z,15.34
2023-03-29T17:53:27.015Z,15.24
2023-03-29T17:55:56.276Z,15.20
2023-03-29T17:58:29.281Z,15.19
2023-03-29T18:00:58.003Z,15.20
2023-03-29T18:03:27.276Z,15.14
2023-03-29T18:05:56.599Z,15.03
2023-03-29T18:08:25.243Z,15.14
2023-03-29T18:10:52.938Z,15.12
2023-03-29T18:13:25.302Z,15.22
2023-03-29T18:15:55.801Z,15.16
2023-03-29T18:18:23.923Z,15.02
2023-03-29T18:20:51.690Z,14.97
2023-03-29T18:23:20.873Z,15.00
2023-03-29T18:25:48.563Z,14.87
2023-03-29T18:28:18.106Z,14.88
2023-03-29T18:30:45.925Z,14.80
2023-03-29T18:33:13.641Z,14.81
2023-03-29T18:35:41.339Z,14.77
2023-03-29T18:38:09.088Z,14.83
2023-03-29T18:40:39.029Z,14.65
2023-03-29T18:43:06.668Z,14.59
2023-03-29T18:45:34.267Z,14.58
2023-03-29T18:48:05.486Z,14.61
2023-03-29T18:50:33.293Z,14.57
2023-03-29T18:53:00.964Z,14.56
2023-03-29T18:55:28.790Z,14.50
2023-03-29T18:57:58.183Z,14.43
2023-03-29T19:00:25.994Z,14.41
2023-03-29T19:02:53.748Z,14.41
2023-03-29T19:05:21.387Z,14.38
2023-03-29T19:07:48.979Z,14.40
2023-03-29T19:10:17.927Z,14.48
2023-03-29T19:12:45.801Z,14.43
2023-03-29T19:15:14.780Z,14.33
2023-03-29T19:17:42.474Z,14.27
2023-03-29T19:20:11.905Z,14.15
2023-03-29T19:22:39.822Z,14.10
2023-03-29T19:25:08.495Z,14.17
2023-03-29T19:27:36.229Z,14.15
2023-03-29T19:30:04.651Z,14.10
2023-03-29T19:32:33.885Z,14.08
2023-03-29T19:35:01.836Z,14.05
2023-03-29T19:37:29.367Z,14.07
2023-03-29T19:39:57.082Z,14.04
2023-03-29T19:42:25.017Z,13.94
2023-03-29T19:44:52.582Z,13.93
2023-03-29T19:47:20.120Z,13.85
2023-03-29T19:49:49.258Z,13.83
2023-03-29T19:52:16.767Z,13.82
2023-03-29T19:54:44.412Z,13.79
2023-03-29T19:57:12.001Z,13.76
2023-03-29T19:59:40.685Z,13.74
2023-03-29T20:02:10.805Z,13.69
2023-03-29T20:04:39.616Z,13.69
2023-03-29T20:07:08.681Z,13.66
2023-03-29T20:09:36.585Z,13.62
2023-03-29T20:12:04.496Z,13.60
2023-03-29T20:14:32.467Z,13.61
2023-03-29T20:17:02.413Z,13.56
2023-03-29T20:19:30.165Z,13.59
2023-03-29T20:21:58.088Z,13.53
2023-03-29T20:24:27.221Z,13.54
2023-03-29T20:26:54.738Z,13.58
2023-03-29T20:29:22.328Z,13.58
2023-03-29T20:31:50.196Z,13.54
2023-03-29T20:34:18.112Z,13.51
2023-03-29T20:36:46.623Z,13.51
2023-03-29T20:39:17.543Z,13.48
2023-03-29T20:41:47.707Z,13.51
2023-03-29T20:44:16.831Z,13.42
2023-03-29T20:47:02.116Z,13.36
2023-03-29T20:49:29.870Z,13.38
2023-03-29T20:51:59.203Z,13.41
2023-03-29T20:54:29.858Z,13.34
2023-03-29T20:56:58.883Z,13.30
2023-03-29T20:59:27.510Z,13.24
2023-03-29T21:01:55.102Z,13.38
2023-03-29T21:04:23.216Z,13.37
2023-03-29T21:06:51.279Z,13.30
2023-03-29T21:09:21.972Z,13.28
2023-03-29T21:11:51.374Z,13.23
2023-03-29T21:14:21.570Z,13.17
2023-03-29T21:16:50.298Z,13.13
2023-03-29T21:19:17.996Z,13.12
2023-03-29T21:21:47.712Z,13.11
2023-03-29T21:24:15.652Z,13.17
2023-03-29T21:26:43.293Z,13.23
2023-03-29T21:29:11.337Z,13.23
2023-03-29T21:31:40.571Z,13.26
2023-03-29T21:34:08.946Z,13.23
2023-03-29T21:36:36.551Z,13.17
2023-03-29T21:39:04.810Z,13.17
2023-03-29T21:41:32.641Z,13.13
2023-03-29T21:44:00.244Z,13.16
2023-03-29T21:46:27.901Z,13.15
2023-03-29T21:48:56.911Z,13.20
2023-03-29T21:51:24.552Z,13.14
2023-03-29T21:53:54.447Z,13.08
2023-03-29T21:56:22.322Z,13.04
2023-03-29T21:58:50.157Z,13.02
2023-03-29T22:01:17.997Z,12.99
2023-03-29T22:03:46.218Z,13.02
2023-03-29T22:06:15.739Z,12.97
2023-03-29T22:08:43.856Z,12.96
2023-03-29T22:11:14.402Z,12.94
2023-03-29T22:13:42.623Z,12.97
2023-03-29T22:16:13.536Z,12.90
2023-03-29T22:18:44.374Z,13.01
2023-03-29T22:21:14.906Z,12.92
2023-03-29T22:23:45.429Z,12.93
2023-03-29T22:26:16.003Z,12.92
2023-03-29T22:28:44.041Z,12.93
2023-03-29T22:31:13.875Z,12.88
2023-03-29T22:33:42.059Z,12.88
2023-03-29T22:36:15.338Z,12.89
2023-03-29T22:38:44.974Z,12.96
2023-03-29T22:41:13.245Z,13.04
2023-03-29T22:43:41.224Z,13.00
2023-03-29T22:46:11.074Z,12.99
2023-03-29T22:48:38.856Z,12.98
2023-03-29T22:51:06.909Z,13.01
2023-03-29T22:53:34.869Z,13.00
2023-03-29T22:56:04.482Z,12.96
2023-03-29T22:58:32.126Z,12.90
2023-03-29T23:00:59.753Z,12.87
2023-03-29T23:03:27.344Z,12.92
2023-03-29T23:05:57.359Z,12.93
2023-03-29T23:08:26.092Z,12.96
2023-03-29T23:10:53.834Z,12.97
2023-03-29T23:13:25.799Z,12.98
2023-03-29T23:15:55.110Z,12.89
2023-03-29T23:18:24.129Z,12.85
2023-03-29T23:20:54.521Z,12.83
2023-03-29T23:23:23.178Z,12.92
2023-03-29T23:25:52.934Z,12.83
2023-03-29T23:28:24.757Z,12.77
2023-03-29T23:30:56.418Z,12.73
2023-03-29T23:33:25.884Z,12.74
2023-03-29T23:35:53.779Z,12.71
2023-03-29T23:38:22.003Z,12.73
2023-03-29T23:40:58.844Z,12.71
2023-03-29T23:43:32.502Z,12.73
2023-03-29T23:46:01.548Z,12.76
2023-03-29T23:48:30.304Z,12.79
2023-03-29T23:50:57.935Z,12.78
2023-03-29T23:53:28.945Z,12.77
2023-03-29T23:55:58.129Z,12.75
2023-03-29T23:58:28.296Z,12.77
